createdAt,value
2019-04-06T00:02:19.316Z,79.00
2019-04-06T00:05:26.288Z,78.77
2019-04-06T00:08:32.860Z,79.11
2019-04-06T00:11:40.573Z,79.21
2019-04-06T00:14:47.595Z,79.23
2019-04-06T00:17:54.663Z,79.13
2019-04-06T00:21:02.265Z,79.13
2019-04-06T00:24:09.292Z,79.48
2019-04-06T00:27:16.328Z,79.40
2019-04-06T00:30:24.554Z,79.83
2019-04-06T00:33:33.406Z,81.68
2019-04-06T00:36:41.346Z,81.49
2019-04-06T00:39:48.850Z,81.22
2019-04-06T00:42:55.875Z,81.79
2019-04-06T00:46:02.945Z,81.62
2019-04-06T00:49:10.121Z,81.72
2019-04-06T00:52:17.288Z,81.98
2019-04-06T00:55:24.402Z,83.50
2019-04-06T00:58:32.600Z,84.22
2019-04-06T01:01:40.253Z,84.04
2019-04-06T01:04:47.721Z,83.45
2019-04-06T01:07:56.029Z,84.32
2019-04-06T01:11:03.568Z,84.16
2019-04-06T01:14:11.177Z,83.85
2019-04-06T01:17:18.683Z,84.19
2019-04-06T01:20:26.303Z,83.90
2019-04-06T01:23:32.822Z,83.51
2019-04-06T01:26:40.292Z,83.77
2019-04-06T01:29:47.517Z,83.73
2019-04-06T01:32:55.295Z,84.47
2019-04-06T01:36:02.390Z,83.71
2019-04-06T01:39:09.510Z,85.07
2019-04-06T01:42:16.807Z,85.07
2019-04-06T01:45:24.380Z,86.15
2019-04-06T01:48:31.831Z,85.36
2019-04-06T01:51:39.348Z,85.36
2019-04-06T01:54:46.828Z,85.28
2019-04-06T01:57:54.461Z,84.16
2019-04-06T02:01:16.155Z,84.25
2019-04-06T02:04:23.397Z,83.31
2019-04-06T02:07:31.145Z,83.08
2019-04-06T02:10:38.962Z,83.11
2019-04-06T02:13:45.977Z,82.51
2019-04-06T02:16:53.310Z,82.44
2019-04-06T02:20:00.354Z,81.76
2019-04-06T02:23:06.835Z,81.97
2019-04-06T02:26:14.265Z,81.59
2019-04-06T02:29:21.304Z,82.04
2019-04-06T02:32:30.342Z,80.99
2019-04-06T02:35:48.686Z,80.62
2019-04-06T02:39:00.303Z,80.93
2019-04-06T02:42:16.490Z,81.51
2019-04-06T02:45:23.841Z,81.12
2019-04-06T02:48:30.994Z,81.60
2019-04-06T02:51:38.470Z,81.27
2019-04-06T02:54:45.512Z,81.52
2019-04-06T02:57:52.682Z,81.36
2019-04-06T03:01:00.916Z,81.36
2019-04-06T03:04:08.678Z,81.08
2019-04-06T03:07:15.740Z,80.97
2019-04-06T03:10:24.869Z,81.22
2019-04-06T03:13:32.266Z,80.75
2019-04-06T03:16:38.968Z,80.23
2019-04-06T03:19:46.662Z,80.08
2019-04-06T03:22:55.758Z,80.01
2019-04-06T03:26:03.359Z,79.90
2019-04-06T03:29:10.554Z,79.94
2019-04-06T03:32:17.971Z,81.72
2019-04-06T03:35:25.380Z,81.72
2019-04-06T03:38:32.626Z,81.59
2019-04-06T03:41:40.725Z,80.75
2019-04-06T03:44:47.920Z,80.27
2019-04-06T03:47:55.105Z,81.40
2019-04-06T03:51:03.458Z,80.62
2019-04-06T03:54:10.667Z,80.26
2019-04-06T03:57:17.841Z,81.42
2019-04-06T04:00:25.637Z,80.44
2019-04-06T04:03:33.305Z,80.11
2019-04-06T04:06:39.864Z,80.16
2019-04-06T04:09:47.465Z,81.91
2019-04-06T04:12:53.938Z,80.72
2019-04-06T04:16:00.963Z,80.51
2019-04-06T04:19:08.268Z,80.97
2019-04-06T04:22:16.309Z,80.50
2019-04-06T04:25:23.312Z,80.31
2019-04-06T04:28:30.818Z,80.14
2019-04-06T04:31:38.321Z,80.76
2019-04-06T04:34:46.445Z,82.20
2019-04-06T04:37:53.637Z,81.09
2019-04-06T04:41:01.347Z,81.99
2019-04-06T04:44:08.634Z,81.99
2019-04-06T04:47:15.904Z,81.35
2019-04-06T04:50:23.354Z,80.90
2019-04-06T04:53:31.741Z,80.90
2019-04-06T04:56:39.045Z,81.79
2019-04-06T04:59:48.522Z,81.53
2019-04-06T05:02:55.827Z,82.40
2019-04-06T05:06:03.316Z,81.81
2019-04-06T05:09:10.945Z,81.76
2019-04-06T05:12:18.624Z,80.85
2019-04-06T05:15:57.944Z,81.07
2019-04-06T05:19:06.163Z,80.37
2019-04-06T05:22:13.436Z,80.47
2019-04-06T05:25:20.943Z,80.15
2019-04-06T05:28:28.739Z,80.51
2019-04-06T05:31:36.656Z,81.38
2019-04-06T05:34:44.324Z,82.01
2019-04-06T05:37:51.721Z,82.01
2019-04-06T05:41:00.962Z,81.08
2019-04-06T05:44:08.773Z,80.37
2019-04-06T05:47:16.251Z,82.64
2019-04-06T05:50:24.947Z,82.65
2019-04-06T05:53:32.286Z,82.23
2019-04-06T05:56:39.266Z,82.05
2019-04-06T05:59:46.941Z,81.01
2019-04-06T06:02:54.361Z,80.64
2019-04-06T06:06:02.534Z,80.28
2019-04-06T06:09:11.719Z,80.28
2019-04-06T06:12:20.334Z,79.07
2019-04-06T06:15:28.404Z,77.58
2019-04-06T06:18:36.998Z,77.58
2019-04-06T06:21:44.269Z,78.20
2019-04-06T06:24:51.686Z,78.12
2019-04-06T06:27:59.213Z,76.77
2019-04-06T06:31:06.904Z,76.94
2019-04-06T06:34:14.335Z,77.21
2019-04-06T06:37:22.442Z,76.73
2019-04-06T06:40:29.739Z,74.25
2019-04-06T06:43:37.572Z,72.04
2019-04-06T06:46:44.971Z,70.56
2019-04-06T06:49:52.341Z,67.84
2019-04-06T06:52:59.702Z,67.76
2019-04-06T06:56:06.993Z,66.54
2019-04-06T06:59:14.518Z,66.93
2019-04-06T07:02:22.332Z,64.90
2019-04-06T07:05:29.719Z,64.90
2019-04-06T07:12:00.356Z,64.19
2019-04-06T07:15:09.879Z,63.55
2019-04-06T07:18:17.425Z,61.95
2019-04-06T07:21:25.598Z,62.23
2019-04-06T07:24:33.022Z,61.36
2019-04-06T07:27:40.713Z,59.96
2019-04-06T07:30:47.640Z,59.62
2019-04-06T07:33:55.107Z,56.58
2019-04-06T07:37:02.476Z,54.99
2019-04-06T07:40:11.346Z,55.11
2019-04-06T07:43:17.845Z,52.40
2019-04-06T07:46:25.331Z,57.60
2019-04-06T07:49:33.357Z,57.49
2019-04-06T07:52:41.007Z,58.64
2019-04-06T07:55:48.290Z,60.82
2019-04-06T07:58:57.778Z,62.54
2019-04-06T08:02:05.538Z,62.87
2019-04-06T08:05:13.008Z,61.25
2019-04-06T08:08:20.455Z,61.25
2019-04-06T08:11:27.608Z,60.23
2019-04-06T08:14:34.719Z,58.56
2019-04-06T08:17:42.359Z,58.17
2019-04-06T08:20:49.883Z,55.51
2019-04-06T08:23:57.304Z,57.30
2019-04-06T08:27:04.504Z,56.46
2019-04-06T08:30:11.497Z,53.99
2019-04-06T08:33:18.683Z,53.76
2019-04-06T08:36:26.254Z,54.05
2019-04-06T08:39:34.050Z,52.09
2019-04-06T08:42:42.160Z,48.91
2019-04-06T08:45:49.375Z,48.91
2019-04-06T08:48:57.516Z,50.44
2019-04-06T08:52:04.936Z,49.59
2019-04-06T08:55:15.285Z,49.59
2019-04-06T08:58:22.859Z,49.35
2019-04-06T09:01:31.324Z,51.15
2019-04-06T09:04:38.903Z,51.25
2019-04-06T09:07:46.270Z,51.25
2019-04-06T09:10:53.773Z,48.11
2019-04-06T09:14:00.989Z,50.71
2019-04-06T09:17:08.403Z,47.79
2019-04-06T09:20:17.339Z,46.83
2019-04-06T09:23:24.003Z,46.47
2019-04-06T09:26:31.513Z,46.29
2019-04-06T09:29:39.679Z,46.85
2019-04-06T09:32:47.975Z,45.75
2019-04-06T09:35:55.516Z,44.36
2019-04-06T09:39:03.071Z,42.91
2019-04-06T09:42:11.306Z,45.93
2019-04-06T09:45:37.549Z,45.32
2019-04-06T09:48:59.287Z,43.40
2019-04-06T09:52:08.323Z,43.40
2019-04-06T09:55:27.710Z,41.92
2019-04-06T09:58:37.286Z,41.92
2019-04-06T10:02:02.357Z,43.20
2019-04-06T10:05:20.821Z,43.11
2019-04-06T10:08:41.073Z,43.57
2019-04-06T10:11:56.500Z,44.77
2019-04-06T10:15:22.386Z,44.85
2019-04-06T10:18:34.767Z,43.00
2019-04-06T10:21:49.075Z,43.43
2019-04-06T10:25:05.109Z,40.77
2019-04-06T10:28:20.727Z,42.66
2019-04-06T10:31:29.692Z,40.74
2019-04-06T10:34:41.961Z,41.98
2019-04-06T10:37:56.903Z,40.54
2019-04-06T10:41:18.345Z,40.59
2019-04-06T10:44:35.431Z,39.71
2019-04-06T10:47:45.464Z,42.63
2019-04-06T10:51:09.860Z,42.39
2019-04-06T10:54:35.067Z,41.28
2019-04-06T10:57:46.676Z,39.41
2019-04-06T11:01:03.861Z,39.97
2019-04-06T11:04:22.665Z,37.97
2019-04-06T11:07:32.935Z,38.88
2019-04-06T11:10:45.511Z,37.44
2019-04-06T11:14:04.777Z,36.11
2019-04-06T11:17:30.745Z,37.25
2019-04-06T11:20:49.496Z,35.95
2019-04-06T11:24:14.770Z,36.93
2019-04-06T11:27:24.249Z,37.20
2019-04-06T11:30:49.323Z,37.20
2019-04-06T11:34:14.263Z,37.68
2019-04-06T11:37:32.758Z,37.95
2019-04-06T11:40:49.557Z,36.38
2019-04-06T11:43:58.595Z,37.07
2019-04-06T11:47:24.312Z,36.94
2019-04-06T11:50:31.496Z,36.54
2019-04-06T11:53:43.291Z,36.54
2019-04-06T11:56:54.389Z,36.40
2019-04-06T12:00:26.377Z,37.12
2019-04-06T12:03:46.574Z,35.44
2019-04-06T12:07:11.404Z,36.97
2019-04-06T12:10:37.256Z,36.97
2019-04-06T12:14:03.404Z,37.40
2019-04-06T12:17:30.357Z,34.23
2019-04-06T12:20:42.593Z,35.77
2019-04-06T12:24:08.634Z,38.47
2019-04-06T12:27:17.503Z,39.59
2019-04-06T12:30:38.599Z,39.45
2019-04-06T12:34:02.756Z,39.45
2019-04-06T12:37:30.547Z,39.19
2019-04-06T12:40:41.813Z,41.57
2019-04-06T12:43:55.207Z,40.51
2019-04-06T12:47:18.210Z,39.19
2019-04-06T12:50:27.891Z,38.78
2019-04-06T12:53:36.776Z,41.99
2019-04-06T12:57:02.032Z,42.82
2019-04-06T13:00:17.823Z,41.83
2019-04-06T13:03:32.639Z,41.87
2019-04-06T13:06:40.476Z,41.54
2019-04-06T13:10:03.736Z,40.41
2019-04-06T13:13:13.602Z,40.41
2019-04-06T13:16:26.623Z,38.89
2019-04-06T13:19:39.620Z,38.89
2019-04-06T13:23:03.743Z,38.48
2019-04-06T13:26:28.627Z,38.87
2019-04-06T13:29:50.424Z,38.10
2019-04-06T13:33:11.952Z,38.44
2019-04-06T13:36:24.248Z,37.40
2019-04-06T13:39:42.266Z,37.77
2019-04-06T13:43:05.749Z,38.00
2019-04-06T13:46:26.464Z,36.91
2019-04-06T13:49:38.540Z,35.07
2019-04-06T13:52:56.905Z,35.14
2019-04-06T13:56:18.290Z,37.01
2019-04-06T13:59:37.560Z,36.68
2019-04-06T14:02:58.600Z,37.74
2019-04-06T14:06:10.502Z,38.76
2019-04-06T14:09:33.454Z,38.76
2019-04-06T14:12:57.154Z,38.66
2019-04-06T14:16:07.614Z,38.10
2019-04-06T14:19:28.627Z,38.10
2019-04-06T14:22:48.781Z,38.25
2019-04-06T14:26:03.261Z,38.25
2019-04-06T14:29:21.540Z,39.72
2019-04-06T14:32:43.256Z,42.21
2019-04-06T14:35:58.693Z,42.21
2019-04-06T14:39:19.706Z,44.10
2019-04-06T14:42:45.715Z,44.01
2019-04-06T14:45:55.493Z,44.18
2019-04-06T14:49:17.218Z,43.44
2019-04-06T14:52:20.738Z,43.44
2019-04-06T14:55:31.435Z,42.58
2019-04-06T14:58:47.613Z,42.92
2019-04-06T15:02:09.597Z,43.10
2019-04-06T15:05:18.533Z,43.28
2019-04-06T15:08:44.403Z,43.54
2019-04-06T15:12:12.714Z,43.81
2019-04-06T15:15:33.427Z,43.29
2019-04-06T15:18:45.223Z,43.00
2019-04-06T15:22:12.628Z,42.92
2019-04-06T15:25:23.531Z,41.96
2019-04-06T15:28:43.266Z,41.96
2019-04-06T15:31:55.298Z,40.61
2019-04-06T15:35:05.021Z,40.48
2019-04-06T15:38:21.471Z,40.68
2019-04-06T15:41:31.473Z,41.06
2019-04-06T15:44:53.250Z,41.71
2019-04-06T15:48:00.515Z,41.88
2019-04-06T15:51:15.583Z,42.35
2019-04-06T15:54:37.025Z,42.19
2019-04-06T15:57:49.048Z,41.85
2019-04-06T16:01:11.799Z,40.63
2019-04-06T16:04:20.987Z,40.96
2019-04-06T16:07:44.963Z,40.83
2019-04-06T16:10:53.443Z,41.95
2019-04-06T16:14:20.286Z,42.84
2019-04-06T16:17:31.463Z,42.42
2019-04-06T16:20:58.441Z,42.53
2019-04-06T16:24:10.062Z,43.44
2019-04-06T16:27:24.327Z,44.04
2019-04-06T16:30:34.429Z,44.74
2019-04-06T16:33:42.312Z,44.80
2019-04-06T16:37:04.645Z,45.17
2019-04-06T16:40:16.431Z,45.96
2019-04-06T16:43:23.934Z,46.49
2019-04-06T16:46:39.958Z,46.46
2019-04-06T16:50:07.646Z,46.60
2019-04-06T16:53:33.309Z,46.90
2019-04-06T16:56:44.144Z,47.44
2019-04-06T16:59:53.413Z,47.88
2019-04-06T17:03:18.900Z,47.74
2019-04-06T17:06:32.534Z,48.40
2019-04-06T17:09:59.626Z,48.35
2019-04-06T17:13:17.764Z,49.13
2019-04-06T17:16:34.039Z,50.00
2019-04-06T17:19:42.591Z,50.31
2019-04-06T17:22:57.869Z,50.67
2019-04-06T17:26:25.617Z,50.35
2019-04-06T17:29:42.278Z,51.22
2019-04-06T17:32:52.619Z,52.19
2019-04-06T17:36:17.847Z,52.73
2019-04-06T17:39:43.570Z,53.10
2019-04-06T17:43:00.829Z,53.11
2019-04-06T17:46:10.427Z,56.39
2019-04-06T17:49:24.705Z,56.11
2019-04-06T17:52:34.856Z,59.29
2019-04-06T17:56:00.495Z,57.18
2019-04-06T17:59:17.604Z,56.53
2019-04-06T18:02:49.221Z,58.03
2019-04-06T18:06:04.543Z,58.03
2019-04-06T18:09:13.454Z,60.92
2019-04-06T18:12:30.519Z,60.92
2019-04-06T18:15:38.382Z,63.25
2019-04-06T18:18:45.103Z,63.25
2019-04-06T18:21:53.877Z,63.18
2019-04-06T18:25:02.396Z,62.47
2019-04-06T18:28:10.616Z,65.10
2019-04-06T18:31:19.145Z,64.57
2019-04-06T18:34:26.723Z,68.96
2019-04-06T18:37:40.141Z,65.79
2019-04-06T18:40:48.311Z,68.45
2019-04-06T18:43:54.709Z,68.45
2019-04-06T18:47:02.350Z,68.63
2019-04-06T18:50:10.729Z,69.25
2019-04-06T18:53:18.205Z,68.91
2019-04-06T18:56:24.843Z,70.66
2019-04-06T18:59:32.711Z,70.86
2019-04-06T19:02:40.725Z,71.67
2019-04-06T19:05:50.052Z,71.10
2019-04-06T19:08:58.790Z,72.17
2019-04-06T19:12:09.017Z,72.88
2019-04-06T19:15:22.906Z,73.86
2019-04-06T19:18:33.518Z,74.73
2019-04-06T19:21:49.008Z,74.96
2019-04-06T19:24:57.694Z,73.48
2019-04-06T19:28:06.931Z,73.87
2019-04-06T19:31:15.125Z,73.48
2019-04-06T19:34:23.910Z,76.49
2019-04-06T19:37:33.690Z,74.84
2019-04-06T19:40:41.909Z,76.35
2019-04-06T19:43:49.187Z,74.59
2019-04-06T19:46:56.288Z,77.40
2019-04-06T19:50:03.771Z,75.47
2019-04-06T19:53:11.472Z,74.87
2019-04-06T19:56:18.187Z,77.68
2019-04-06T19:59:25.378Z,76.61
2019-04-06T20:02:33.740Z,76.46
2019-04-06T20:05:41.500Z,76.78
2019-04-06T20:08:50.261Z,77.33
2019-04-06T20:12:06.110Z,77.94
2019-04-06T20:15:10.261Z,79.61
2019-04-06T20:18:18.010Z,79.10
2019-04-06T20:21:25.764Z,79.45
2019-04-06T20:24:32.983Z,78.29
2019-04-06T20:27:40.930Z,79.21
2019-04-06T20:30:48.762Z,79.65
2019-04-06T20:33:55.924Z,79.16
2019-04-06T20:37:05.345Z,79.09
2019-04-06T20:40:13.257Z,79.19
2019-04-06T20:43:21.319Z,79.48
2019-04-06T20:46:29.782Z,80.27
2019-04-06T20:49:37.384Z,81.16
2019-04-06T20:52:45.997Z,79.36
2019-04-06T20:55:53.485Z,79.36
2019-04-06T20:59:01.472Z,79.53
2019-04-06T21:02:09.577Z,80.25
2019-04-06T21:05:17.355Z,80.40
2019-04-06T21:08:24.148Z,80.40
2019-04-06T21:11:32.306Z,80.34
2019-04-06T21:14:39.762Z,81.45
2019-04-06T21:17:48.177Z,81.80
2019-04-06T21:20:56.472Z,81.94
2019-04-06T21:24:04.692Z,81.31
2019-04-06T21:27:14.279Z,80.73
2019-04-06T21:30:24.521Z,81.45
2019-04-06T21:33:32.322Z,81.17
2019-04-06T21:36:39.698Z,83.06
2019-04-06T21:39:48.302Z,83.12
2019-04-06T21:42:56.688Z,82.86
2019-04-06T21:46:04.256Z,82.86
2019-04-06T21:49:12.256Z,83.02
2019-04-06T21:52:20.330Z,83.44
2019-04-06T21:55:28.627Z,82.79
2019-04-06T21:58:36.266Z,82.56
2019-04-06T22:01:44.961Z,82.56
2019-04-06T22:04:52.123Z,83.07
2019-04-06T22:07:59.352Z,84.71
2019-04-06T22:11:06.221Z,83.94
2019-04-06T22:14:14.855Z,83.33
2019-04-06T22:17:23.238Z,84.05
2019-04-06T22:20:30.818Z,83.35
2019-04-06T22:23:43.247Z,83.25
2019-04-06T22:26:47.980Z,83.41
2019-04-06T22:29:55.535Z,83.41
2019-04-06T22:33:03.287Z,83.35
2019-04-06T22:36:10.634Z,85.00
2019-04-06T22:39:18.133Z,84.52
2019-04-06T22:42:26.085Z,84.24
2019-04-06T22:45:34.714Z,84.24
2019-04-06T22:48:43.805Z,83.96
2019-04-06T22:51:52.804Z,84.92
2019-04-06T22:55:00.691Z,84.28
2019-04-06T22:58:08.535Z,84.49
2019-04-06T23:01:18.590Z,84.31
2019-04-06T23:04:32.087Z,84.31
2019-04-06T23:07:39.480Z,84.38
2019-04-06T23:10:47.589Z,84.87
2019-04-06T23:13:55.328Z,85.03
2019-04-06T23:17:02.384Z,84.53
2019-04-06T23:20:11.302Z,84.70
2019-04-06T23:23:18.727Z,85.95
2019-04-06T23:26:26.158Z,85.41
2019-04-06T23:29:33.708Z,86.48
2019-04-06T23:32:41.115Z,85.96
2019-04-06T23:35:48.723Z,86.18
2019-04-06T23:38:56.349Z,86.18
2019-04-06T23:42:04.632Z,87.26
2019-04-06T23:45:12.871Z,86.61
2019-04-06T23:48:20.547Z,85.77
2019-04-06T23:51:27.559Z,86.11
2019-04-06T23:54:34.782Z,85.83
2019-04-06T23:57:42.923Z,85.83
